Time;durP1;ratioP1;P1;durP2;ratioP2;P2;SDS_P1;SDS_P2;PMS_P1;PMS_P2;Temp;Humidity;BMP_temperature;BMP_pressure;BME280_temperature;BME280_humidity;BME280_pressure;Samples;Min_cycle;Max_cycle;Signal;HPM_P1;HPM_P2
2023/08/23 00:03:14;;;;;;;6.80;3.78;;;;;16.80;101545.00;;;;10092147;28;20206;-77
2023/08/23 00:08:15;;;;;;;5.50;3.50;;;;;16.70;101538.00;;;;10077818;28;20228;-77
2023/08/23 00:13:16;;;;;;;9.82;3.20;;;;;16.70;101528.00;;;;10092881;28;20703;-77
2023/08/23 00:18:18;;;;;;;5.10;3.20;;;;;16.60;101533.00;;;;10062455;28;20512;-77
2023/08/23 00:23:19;;;;;;;4.38;3.13;;;;;16.50;101541.00;;;;10101727;28;20499;-77
2023/08/23 00:28:20;;;;;;;6.13;3.20;;;;;16.40;101536.00;;;;10088700;28;20341;-77
2023/08/23 00:33:22;;;;;;;5.95;3.55;;;;;16.40;101531.00;;;;10077058;28;20670;-77
2023/08/23 00:38:23;;;;;;;5.50;3.45;;;;;16.30;101524.00;;;;10111931;28;21734;-77
2023/08/23 00:43:25;;;;;;;4.65;3.45;;;;;16.20;101521.00;;;;10101771;28;20202;-77
2023/08/23 00:48:27;;;;;;;5.55;3.40;;;;;16.20;101518.00;;;;10091262;28;20217;-76
2023/08/23 00:53:28;;;;;;;6.57;3.10;;;;;16.10;101520.00;;;;10079888;28;20228;-76
2023/08/23 00:58:30;;;;;;;6.63;3.90;;;;;16.10;101518.00;;;;10055029;28;20322;-76
2023/08/23 01:03:32;;;;;;;6.18;4.28;;;;;16.00;101508.00;;;;10054475;28;20289;-76
2023/08/23 01:09:04;;;;;;;5.50;4.53;;;;;16.00;101507.00;;;;10057289;28;21059;-76
2023/08/23 01:14:11;;;;;;;8.02;4.95;;;;;15.90;101513.00;;;;10067067;28;20221;-76
2023/08/23 01:19:33;;;;;;;5.75;5.15;;;;;15.90;101503.00;;;;10100700;28;20297;-77
2023/08/23 01:24:35;;;;;;;9.73;4.78;;;;;15.80;101517.00;;;;10076309;28;20587;-77
2023/08/23 01:29:36;;;;;;;9.65;5.65;;;;;15.70;101506.00;;;;10093471;28;20210;-77
2023/08/23 01:34:43;;;;;;;7.55;4.82;;;;;15.70;101504.00;;;;10113081;28;21469;-76
2023/08/23 01:39:46;;;;;;;10.80;5.68;;;;;15.60;101515.00;;;;10065070;28;20626;-77
2023/08/23 01:44:50;;;;;;;7.10;6.30;;;;;15.50;101501.00;;;;10066803;28;20953;-77
2023/08/23 01:49:52;;;;;;;6.85;4.97;;;;;15.50;101491.00;;;;10061927;28;20206;-76
2023/08/23 01:54:53;;;;;;;8.32;4.97;;;;;15.40;101494.00;;;;10084766;28;20234;-77
2023/08/23 01:59:56;;;;;;;9.93;5.32;;;;;15.40;101487.00;;;;10107186;28;20251;-77
2023/08/23 02:04:57;;;;;;;8.60;4.88;;;;;15.30;101479.00;;;;10099161;28;20206;-77
2023/08/23 02:09:58;;;;;;;7.05;4.60;;;;;15.20;101483.00;;;;10095444;28;20209;-76
2023/08/23 02:15:00;;;;;;;8.55;4.53;;;;;15.10;101482.00;;;;10077036;28;20237;-76
2023/08/23 02:20:01;;;;;;;8.23;4.60;;;;;15.10;101474.00;;;;10085294;28;20301;-76
2023/08/23 02:25:03;;;;;;;7.03;4.68;;;;;15.10;101488.00;;;;10052092;28;20241;-77
2023/08/23 02:30:05;;;;;;;7.30;4.63;;;;;15.00;101492.00;;;;10070809;28;20263;-76
2023/08/23 02:35:08;;;;;;;6.75;4.30;;;;;15.00;101473.00;;;;10073494;28;20585;-76
2023/08/23 02:40:10;;;;;;;5.37;4.70;;;;;15.00;101473.00;;;;10087141;28;20243;-77
2023/08/23 02:45:11;;;;;;;5.15;4.65;;;;;14.90;101455.00;;;;10086512;28;20262;-77
2023/08/23 02:50:12;;;;;;;7.67;5.23;;;;;14.90;101464.00;;;;10085925;28;20346;-77
2023/08/23 02:55:14;;;;;;;10.83;6.00;;;;;14.90;101460.00;;;;10084958;28;20225;-76
2023/08/23 03:00:16;;;;;;;8.17;6.80;;;;;14.90;101460.00;;;;10072826;28;20210;-76
2023/08/23 03:05:17;;;;;;;9.70;5.83;;;;;14.80;101458.00;;;;10095442;28;20624;-77
2023/08/23 03:10:20;;;;;;;12.80;5.90;;;;;14.70;101447.00;;;;10073936;28;20953;-77
2023/08/23 03:15:21;;;;;;;7.43;5.20;;;;;14.70;101451.00;;;;10060667;28;20234;-76
2023/08/23 03:20:22;;;;;;;8.77;4.43;;;;;14.70;101455.00;;;;10089998;28;20896;-76
2023/08/23 03:25:24;;;;;;;9.45;5.20;;;;;14.60;101447.00;;;;10051905;28;20206;-78
2023/08/23 03:30:26;;;;;;;7.50;4.97;;;;;14.50;101453.00;;;;10082869;28;20683;-76
2023/08/23 03:35:28;;;;;;;7.03;4.60;;;;;14.40;101448.00;;;;10069038;28;20264;-76
2023/08/23 03:40:34;;;;;;;6.83;4.30;;;;;14.40;101444.00;;;;10066032;28;20210;-76
2023/08/23 03:45:36;;;;;;;6.40;5.17;;;;;14.40;101448.00;;;;10057019;28;20210;-76
2023/08/23 03:50:37;;;;;;;8.30;4.80;;;;;14.40;101459.00;;;;10047580;28;20218;-76
2023/08/23 03:55:38;;;;;;;5.23;4.67;;;;;14.40;101472.00;;;;10085372;28;20250;-76
2023/08/23 04:00:40;;;;;;;8.20;4.80;;;;;14.40;101465.00;;;;10091688;28;20214;-76
2023/08/23 04:05:41;;;;;;;6.23;4.73;;;;;14.40;101459.00;;;;10065243;28;20223;-77
2023/08/23 04:10:47;;;;;;;6.13;5.53;;;;;14.30;101459.00;;;;10070982;28;20215;-77
2023/08/23 04:15:48;;;;;;;7.50;5.43;;;;;14.30;101457.00;;;;10081786;28;20219;-76
2023/08/23 04:21:00;;;;;;;7.23;5.60;;;;;14.20;101450.00;;;;10074192;28;21671;-76
2023/08/23 04:26:02;;;;;;;9.43;5.40;;;;;14.20;101454.00;;;;10112156;28;20214;-77
2023/08/23 04:31:03;;;;;;;9.73;4.70;;;;;14.10;101447.00;;;;10081941;28;20211;-77
2023/08/23 04:36:15;;;;;;;8.70;4.17;;;;;14.10;101443.00;;;;10073048;28;20213;-77
2023/08/23 04:41:16;;;;;;;8.50;4.80;;;;;14.10;101446.00;;;;10062903;28;20199;-76
2023/08/23 04:46:18;;;;;;;6.67;4.80;;;;;14.10;101446.00;;;;10111768;28;20902;-77
2023/08/23 04:51:21;;;;;;;9.60;5.30;;;;;14.10;101454.00;;;;10069180;28;20225;-77
2023/08/23 04:56:23;;;;;;;6.17;5.53;;;;;14.20;101450.00;;;;10080866;28;20258;-77
2023/08/23 05:01:25;;;;;;;8.30;6.00;;;;;14.20;101450.00;;;;10075343;28;20682;-77
2023/08/23 05:06:26;;;;;;;6.13;5.53;;;;;14.30;101460.00;;;;10072771;28;20222;-76
2023/08/23 05:11:28;;;;;;;10.03;6.03;;;;;14.40;101441.00;;;;10059270;28;20221;-76
2023/08/23 05:16:30;;;;;;;9.97;6.90;;;;;14.50;101433.00;;;;10095275;28;20218;-76
2023/08/23 05:21:31;;;;;;;10.17;6.80;;;;;14.70;101446.00;;;;10080828;28;20218;-76
2023/08/23 05:26:32;;;;;;;7.70;5.93;;;;;14.80;101472.00;;;;10095446;28;20226;-77
2023/08/23 05:31:34;;;;;;;11.30;7.40;;;;;15.00;101475.00;;;;10059341;28;20209;-76
2023/08/23 05:36:35;;;;;;;13.10;7.93;;;;;15.20;101482.00;;;;10073972;28;20217;-77
2023/08/23 05:41:36;;;;;;;12.70;7.18;;;;;15.40;101486.00;;;;10080090;28;20221;-77
2023/08/23 05:46:38;;;;;;;10.85;7.20;;;;;15.70;101493.00;;;;10062800;28;20299;-77
2023/08/23 05:51:39;;;;;;;13.52;8.95;;;;;16.00;101475.00;;;;10098480;28;20240;-77
2023/08/23 05:56:40;;;;;;;12.80;8.82;;;;;16.30;101473.00;;;;10059865;28;20236;-76
2023/08/23 06:01:42;;;;;;;13.35;10.23;;;;;16.70;101468.00;;;;10103594;28;20231;-76
2023/08/23 06:06:43;;;;;;;19.10;11.05;;;;;17.10;101476.00;;;;10099795;28;20309;-77
2023/08/23 06:11:44;;;;;;;21.55;13.65;;;;;17.50;101473.00;;;;10077144;28;20306;-78
2023/08/23 06:16:46;;;;;;;24.25;13.80;;;;;18.10;101480.00;;;;10075444;28;21564;-78
2023/08/23 06:21:47;;;;;;;20.58;13.02;;;;;18.90;101478.00;;;;10056086;28;20527;-77
2023/08/23 06:26:50;;;;;;;29.08;13.35;;;;;19.70;101481.00;;;;10075184;28;20226;-77
2023/08/23 06:31:51;;;;;;;22.73;12.25;;;;;20.40;101481.00;;;;10067983;28;20214;-77
2023/08/23 06:36:52;;;;;;;15.95;9.25;;;;;20.90;101485.00;;;;10050784;28;20214;-77
2023/08/23 06:41:54;;;;;;;16.60;7.90;;;;;21.30;101492.00;;;;10052279;28;21293;-76
2023/08/23 06:46:55;;;;;;;18.10;8.38;;;;;21.80;101487.00;;;;10086663;28;20222;-76
2023/08/23 06:51:57;;;;;;;13.70;6.93;;;;;22.10;101487.00;;;;10085478;28;20303;-79
2023/08/23 06:56:58;;;;;;;13.60;5.93;;;;;22.50;101487.00;;;;10090456;28;20700;-77
2023/08/23 07:02:00;;;;;;;14.70;6.57;;;;;22.80;101485.00;;;;10084754;28;20296;-79
2023/08/23 07:07:01;;;;;;;9.63;4.70;;;;;23.00;101496.00;;;;10093625;28;20233;-78
2023/08/23 07:12:03;;;;;;;7.70;3.97;;;;;23.00;101494.00;;;;10099324;28;20839;-77
2023/08/23 07:17:04;;;;;;;11.15;4.00;;;;;22.60;101506.00;;;;10070570;28;20202;-78
2023/08/23 07:22:05;;;;;;;9.75;3.92;;;;;22.80;101502.00;;;;10053395;28;20221;-78
2023/08/23 07:27:07;;;;;;;13.48;5.38;;;;;22.30;101504.00;;;;10051994;28;20354;-77
2023/08/23 07:32:08;;;;;;;11.07;6.30;;;;;22.10;101499.00;;;;10091747;28;20229;-77
2023/08/23 07:37:09;;;;;;;14.45;5.80;;;;;22.30;101501.00;;;;10083810;28;20225;-78
2023/08/23 07:42:11;;;;;;;19.83;5.70;;;;;22.80;101495.00;;;;10055680;28;20708;-78
2023/08/23 07:47:12;;;;;;;13.80;5.68;;;;;23.40;101501.00;;;;10065823;28;20356;-79
2023/08/23 07:52:14;;;;;;;14.18;6.00;;;;;24.00;101494.00;;;;10087893;28;20289;-78
2023/08/23 07:57:15;;;;;;;14.20;7.75;;;;;24.30;101494.00;;;;10099099;28;20206;-78
2023/08/23 08:02:16;;;;;;;16.55;7.90;;;;;24.60;101500.00;;;;10076816;28;20615;-78
2023/08/23 08:07:18;;;;;;;12.73;6.28;;;;;25.10;101497.00;;;;10080202;28;20235;-79
2023/08/23 08:12:39;;;;;;;14.50;6.00;;;;;25.50;101499.00;;;;10074848;28;20245;-79
2023/08/23 08:17:40;;;;;;;12.85;6.50;;;;;25.80;101493.00;;;;10087445;28;20222;-78
2023/08/23 08:22:42;;;;;;;12.02;5.97;;;;;26.20;101491.00;;;;10084022;28;20202;-78
2023/08/23 08:27:43;;;;;;;16.02;7.15;;;;;26.10;101494.00;;;;10069835;28;20234;-78
2023/08/23 08:32:44;;;;;;;13.13;6.57;;;;;26.30;101489.00;;;;10074527;28;20285;-79
2023/08/23 08:37:46;;;;;;;12.07;6.70;;;;;26.60;101488.00;;;;10072509;28;20199;-78
2023/08/23 08:42:48;;;;;;;10.88;5.90;;;;;26.90;101491.00;;;;10096446;28;21499;-78
2023/08/23 08:47:51;;;;;;;9.23;5.82;;;;;27.20;101496.00;;;;10063380;28;20389;-78
2023/08/23 08:52:54;;;;;;;11.82;5.70;;;;;27.70;101508.00;;;;10092896;28;20583;-78
2023/08/23 08:57:56;;;;;;;16.67;6.55;;;;;28.00;101516.00;;;;10102546;28;20206;-79
2023/08/23 09:02:59;;;;;;;17.33;6.70;;;;;28.30;101529.00;;;;10101927;28;20210;-78
2023/08/23 09:08:00;;;;;;;10.82;6.22;;;;;28.30;101521.00;;;;10099478;28;22271;-80
2023/08/23 09:13:03;;;;;;;18.98;5.82;;;;;28.80;101522.00;;;;10075069;28;20213;-79
2023/08/23 09:18:04;;;;;;;12.55;5.60;;;;;29.20;101522.00;;;;10095120;28;20207;-79
2023/08/23 09:23:06;;;;;;;12.85;5.78;;;;;29.50;101531.00;;;;10088615;28;20217;-79
2023/08/23 09:28:12;;;;;;;13.80;5.30;;;;;29.40;101530.00;;;;10093134;28;20931;-80
2023/08/23 09:33:13;;;;;;;10.38;5.70;;;;;29.30;101528.00;;;;10097691;28;20517;-79
2023/08/23 09:38:19;;;;;;;11.63;5.28;;;;;29.60;101521.00;;;;10069491;28;21489;-79
2023/08/23 09:43:23;;;;;;;12.80;4.00;;;;;29.70;101529.00;;;;10099331;28;20287;-78
2023/08/23 09:48:28;;;;;;;9.05;3.70;;;;;29.30;101526.00;;;;10076433;28;20222;-78
2023/08/23 09:53:34;;;;;;;5.55;2.33;;;;;29.60;101527.00;;;;10097499;28;20218;-79
2023/08/23 09:58:39;;;;;;;5.75;1.77;;;;;30.00;101528.00;;;;10095667;28;20206;-79
2023/08/23 10:03:41;;;;;;;5.10;1.70;;;;;29.40;101522.00;;;;10094641;28;20246;-77
2023/08/23 10:08:43;;;;;;;4.57;1.55;;;;;29.70;101516.00;;;;10099749;28;20259;-78
2023/08/23 10:13:46;;;;;;;2.55;1.65;;;;;29.60;101505.00;;;;10077077;28;20305;-78
2023/08/23 10:18:49;;;;;;;4.75;1.92;;;;;30.20;101506.00;;;;10091954;28;20903;-79
2023/08/23 10:23:50;;;;;;;4.28;1.75;;;;;30.60;101507.00;;;;10094968;28;20281;-79
2023/08/23 10:28:53;;;;;;;3.83;2.13;;;;;30.50;101506.00;;;;10071731;28;20206;-79
2023/08/23 10:33:58;;;;;;;6.50;1.90;;;;;31.10;101491.00;;;;10092027;28;20206;-79
2023/08/23 10:39:03;;;;;;;8.60;1.73;;;;;31.60;101499.00;;;;10091009;28;20233;-79
2023/08/23 10:44:14;;;;;;;5.15;2.10;;;;;31.70;101498.00;;;;10096812;28;20293;-78
2023/08/23 10:49:16;;;;;;;6.18;2.42;;;;;31.40;101490.00;;;;10074750;28;20226;-79
2023/08/23 10:54:17;;;;;;;5.20;2.00;;;;;31.80;101471.00;;;;10087398;28;20218;-78
2023/08/23 10:59:19;;;;;;;5.43;2.00;;;;;31.70;101465.00;;;;10094016;28;20254;-80
2023/08/23 11:04:20;;;;;;;4.97;2.00;;;;;31.90;101456.00;;;;10078468;28;21489;-79
2023/08/23 11:09:21;;;;;;;3.63;1.60;;;;;32.30;101460.00;;;;10096170;28;20667;-79
2023/08/23 11:14:22;;;;;;;5.32;1.55;;;;;32.50;101457.00;;;;10067952;28;20214;-79
2023/08/23 11:19:24;;;;;;;5.82;1.75;;;;;33.20;101462.00;;;;10096737;28;20734;-79
2023/08/23 11:24:26;;;;;;;3.92;1.77;;;;;33.70;101463.00;;;;10088369;28;20309;-79
2023/08/23 11:29:27;;;;;;;1.73;1.30;;;;;32.20;101441.00;;;;10087136;28;22045;-78
2023/08/23 11:34:29;;;;;;;4.60;1.52;;;;;32.20;101449.00;;;;10091458;28;20237;-79
2023/08/23 11:39:30;;;;;;;4.00;1.55;;;;;32.70;101452.00;;;;10103770;28;20232;-79
2023/08/23 11:44:31;;;;;;;5.18;1.80;;;;;32.70;101457.00;;;;10069952;28;21339;-79
2023/08/23 11:49:33;;;;;;;3.33;1.42;;;;;32.90;101445.00;;;;10090993;28;20301;-79
2023/08/23 11:54:40;;;;;;;5.07;1.77;;;;;33.40;101450.00;;;;10112031;28;20202;-79
2023/08/23 11:59:43;;;;;;;3.60;1.63;;;;;32.80;101449.00;;;;10070489;28;20217;-79
2023/08/23 12:04:44;;;;;;;5.65;1.88;;;;;33.00;101441.00;;;;10088521;28;20218;-80
2023/08/23 12:09:47;;;;;;;6.22;2.17;;;;;33.20;101444.00;;;;10100508;28;20213;-79
2023/08/23 12:14:48;;;;;;;2.70;1.50;;;;;33.70;101441.00;;;;10080270;28;20214;-79
2023/08/23 12:19:49;;;;;;;3.97;1.27;;;;;32.50;101445.00;;;;10092234;28;20214;-79
2023/08/23 12:24:51;;;;;;;3.80;1.40;;;;;30.70;101436.00;;;;10086365;28;20795;-79
2023/08/23 12:29:52;;;;;;;4.40;1.70;;;;;31.40;101429.00;;;;10085014;28;21645;-79
2023/08/23 12:34:54;;;;;;;2.33;1.42;;;;;32.00;101434.00;;;;10067802;28;20219;-78
2023/08/23 12:39:56;;;;;;;5.53;1.70;;;;;32.50;101429.00;;;;10100777;28;20214;-78
2023/08/23 12:44:58;;;;;;;1.85;1.13;;;;;31.80;101422.00;;;;10118128;28;20230;-79
2023/08/23 12:50:00;;;;;;;2.63;1.63;;;;;31.40;101420.00;;;;10083626;28;20218;-79
2023/08/23 12:55:01;;;;;;;1.95;1.25;;;;;31.90;101419.00;;;;10085694;28;20688;-78
2023/08/23 13:00:07;;;;;;;3.97;1.30;;;;;32.60;101413.00;;;;10051975;28;20225;-78
2023/08/23 13:05:28;;;;;;;3.70;1.33;;;;;32.30;101413.00;;;;10057671;28;20206;-78
2023/08/23 13:10:31;;;;;;;2.85;1.65;;;;;31.50;101403.00;;;;10083313;28;20489;-78
2023/08/23 13:15:33;;;;;;;2.17;1.45;;;;;31.90;101395.00;;;;10082615;28;20492;-78
2023/08/23 13:20:34;;;;;;;4.57;1.50;;;;;30.80;101397.00;;;;10085749;28;20202;-77
2023/08/23 13:25:35;;;;;;;4.60;1.50;;;;;30.30;101385.00;;;;10054453;28;20214;-78
2023/08/23 13:30:37;;;;;;;4.28;1.63;;;;;30.30;101384.00;;;;10079017;28;20315;-78
2023/08/23 13:35:38;;;;;;;4.63;1.55;;;;;29.60;101391.00;;;;10085934;28;20305;-77
2023/08/23 13:40:39;;;;;;;2.97;1.65;;;;;29.70;101377.00;;;;10092646;28;20241;-79
2023/08/23 13:45:43;;;;;;;3.05;1.60;;;;;31.10;101382.00;;;;10078552;28;20240;-78
2023/08/23 13:50:44;;;;;;;5.22;1.70;;;;;31.90;101383.00;;;;10083773;28;20472;-79
2023/08/23 13:55:46;;;;;;;2.17;1.63;;;;;30.70;101382.00;;;;10094529;28;20241;-79
2023/08/23 14:00:47;;;;;;;6.72;1.48;;;;;30.10;101382.00;;;;10085240;28;20215;-79
2023/08/23 14:06:02;;;;;;;2.85;1.70;;;;;30.70;101373.00;;;;10129505;28;20217;-78
2023/08/23 14:11:03;;;;;;;4.07;1.80;;;;;31.20;101362.00;;;;10129032;28;20228;-79
2023/08/23 14:16:05;;;;;;;4.18;1.52;;;;;32.20;101355.00;;;;10117661;28;21880;-79
2023/08/23 14:21:08;;;;;;;6.88;2.35;;;;;33.70;101351.00;;;;10112025;28;20274;-79
2023/08/23 14:26:10;;;;;;;3.97;1.70;;;;;34.90;101342.00;;;;10104318;28;20236;-79
2023/08/23 14:31:11;;;;;;;6.15;1.83;;;;;35.10;101347.00;;;;10106362;28;21432;-78
2023/08/23 14:36:13;;;;;;;6.03;1.77;;;;;34.30;101339.00;;;;10092334;28;20357;-78
2023/08/23 14:41:14;;;;;;;2.53;1.55;;;;;36.10;101331.00;;;;10091432;28;20206;-78
2023/08/23 14:46:15;;;;;;;5.57;2.10;;;;;34.70;101363.00;;;;10116440;28;20213;-79
2023/08/23 14:51:17;;;;;;;2.60;1.80;;;;;33.80;101355.00;;;;10105490;28;21839;-79
2023/08/23 14:56:18;;;;;;;5.72;2.00;;;;;31.20;101355.00;;;;10092232;28;20977;-79
2023/08/23 15:01:19;;;;;;;5.07;2.40;;;;;29.90;101356.00;;;;10087166;28;20625;-79
2023/08/23 15:06:21;;;;;;;3.20;1.92;;;;;29.10;101355.00;;;;10076424;28;20294;-79
2023/08/23 15:11:22;;;;;;;4.45;1.95;;;;;28.80;101344.00;;;;10062083;28;20532;-79
2023/08/23 15:16:24;;;;;;;5.13;1.88;;;;;28.40;101338.00;;;;10082694;28;20222;-78
2023/08/23 15:21:25;;;;;;;3.03;1.88;;;;;28.20;101343.00;;;;10050969;28;20215;-79
2023/08/23 15:26:26;;;;;;;3.33;1.90;;;;;28.00;101341.00;;;;10080930;28;20214;-78
2023/08/23 15:31:27;;;;;;;4.30;2.10;;;;;27.80;101339.00;;;;10035704;28;21030;-79
2023/08/23 15:36:28;;;;;;;3.78;2.35;;;;;27.70;101327.00;;;;10084423;28;21574;-79
2023/08/23 15:41:30;;;;;;;2.97;1.80;;;;;27.90;101322.00;;;;10107029;28;20210;-79
2023/08/23 15:46:31;;;;;;;4.88;2.28;;;;;28.20;101320.00;;;;10115019;28;20274;-79
2023/08/23 15:51:32;;;;;;;3.40;2.10;;;;;27.70;101316.00;;;;10121689;28;20253;-79
2023/08/23 15:56:34;;;;;;;5.15;2.25;;;;;27.50;101318.00;;;;10088537;28;20920;-79
2023/08/23 16:01:35;;;;;;;3.22;2.08;;;;;27.30;101312.00;;;;10086120;28;20214;-80
2023/08/23 16:06:36;;;;;;;4.05;2.05;;;;;27.20;101307.00;;;;10088680;28;21578;-79
2023/08/23 16:11:38;;;;;;;3.25;1.80;;;;;27.10;101308.00;;;;10095214;28;20281;-79
2023/08/23 16:16:40;;;;;;;3.63;1.88;;;;;27.10;101299.00;;;;10101742;28;20871;-79
2023/08/23 16:21:41;;;;;;;4.95;2.40;;;;;27.10;101295.00;;;;10099880;28;20305;-79
2023/08/23 16:26:43;;;;;;;5.40;2.13;;;;;27.00;101302.00;;;;10101827;28;20369;-79
2023/08/23 16:31:44;;;;;;;8.63;2.30;;;;;27.00;101306.00;;;;10135418;28;21070;-79
2023/08/23 16:36:45;;;;;;;6.55;3.67;;;;;26.90;101309.00;;;;10106476;28;20305;-79
2023/08/23 16:41:47;;;;;;;4.80;3.13;;;;;26.90;101301.00;;;;10088269;28;21840;-79
2023/08/23 16:46:48;;;;;;;4.60;2.50;;;;;26.80;101300.00;;;;10114430;28;20956;-79
2023/08/23 16:51:49;;;;;;;8.88;6.30;;;;;26.70;101292.00;;;;10110734;28;20209;-79
2023/08/23 16:56:51;;;;;;;5.18;2.70;;;;;26.70;101291.00;;;;10107755;28;20226;-79
2023/08/23 17:01:52;;;;;;;5.05;2.63;;;;;26.70;101288.00;;;;10087992;28;20209;-79
2023/08/23 17:06:54;;;;;;;4.78;2.10;;;;;26.60;101283.00;;;;10113961;28;20363;-79
2023/08/23 17:11:56;;;;;;;5.63;3.08;;;;;26.40;101290.00;;;;10097370;28;20218;-78
2023/08/23 17:16:57;;;;;;;3.35;2.47;;;;;26.30;101284.00;;;;10128118;28;20245;-78
2023/08/23 17:21:59;;;;;;;5.03;2.15;;;;;26.20;101288.00;;;;10116519;28;20214;-79
2023/08/23 17:27:01;;;;;;;5.55;2.70;;;;;26.10;101295.00;;;;10121479;28;21830;-79
2023/08/23 17:32:02;;;;;;;4.43;2.47;;;;;26.00;101293.00;;;;10105291;28;20387;-78
2023/08/23 17:37:04;;;;;;;4.75;2.65;;;;;25.80;101300.00;;;;10132058;28;20352;-78
2023/08/23 17:42:05;;;;;;;4.68;2.58;;;;;25.70;101316.00;;;;10098522;28;20561;-78
2023/08/23 17:47:07;;;;;;;3.55;2.30;;;;;25.60;101313.00;;;;10082514;28;20238;-78
2023/08/23 17:52:08;;;;;;;4.55;2.13;;;;;25.50;101309.00;;;;10089439;28;20736;-78
2023/08/23 17:57:10;;;;;;;6.47;2.50;;;;;25.30;101297.00;;;;10115010;28;20972;-78
2023/08/23 18:02:11;;;;;;;4.68;2.50;;;;;25.20;101298.00;;;;10098959;28;20230;-79
2023/08/23 18:07:12;;;;;;;4.70;2.10;;;;;25.00;101297.00;;;;10038970;28;20215;-78
2023/08/23 18:12:15;;;;;;;5.63;2.78;;;;;24.80;101294.00;;;;10093439;28;20210;-78
2023/08/23 18:17:16;;;;;;;4.03;2.25;;;;;24.60;101300.00;;;;10090061;28;20330;-78
2023/08/23 18:22:18;;;;;;;5.65;2.47;;;;;24.40;101291.00;;;;10092938;28;21142;-78
2023/08/23 18:27:19;;;;;;;4.40;2.30;;;;;24.10;101280.00;;;;10081827;28;20719;-78
2023/08/23 18:32:20;;;;;;;5.22;3.03;;;;;23.90;101281.00;;;;10067193;28;21014;-79
2023/08/23 18:37:21;;;;;;;6.25;2.90;;;;;23.70;101264.00;;;;10064167;28;20249;-78
2023/08/23 18:42:23;;;;;;;4.45;2.50;;;;;23.40;101252.00;;;;10092746;28;20209;-78
2023/08/23 18:47:24;;;;;;;9.25;2.22;;;;;23.30;101258.00;;;;10092222;28;20221;-78
2023/08/23 18:52:25;;;;;;;4.93;2.50;;;;;23.00;101261.00;;;;10088687;28;20759;-78
2023/08/23 18:57:26;;;;;;;4.90;3.05;;;;;22.80;101262.00;;;;10062359;28;20222;-78
2023/08/23 19:02:28;;;;;;;5.10;2.45;;;;;22.70;101260.00;;;;10061607;28;20520;-78
2023/08/23 19:07:33;;;;;;;7.20;2.60;;;;;22.50;101263.00;;;;10080308;28;20293;-78
2023/08/23 19:12:35;;;;;;;9.70;3.17;;;;;22.30;101264.00;;;;10049299;28;20247;-78
2023/08/23 19:17:36;;;;;;;5.63;2.75;;;;;22.10;101270.00;;;;10068700;28;20265;-78
2023/08/23 19:22:38;;;;;;;5.28;2.53;;;;;22.00;101281.00;;;;10090037;28;20240;-78
2023/08/23 19:27:39;;;;;;;7.57;2.67;;;;;22.00;101271.00;;;;10070903;28;20256;-78
2023/08/23 19:32:40;;;;;;;3.58;2.83;;;;;21.80;101287.00;;;;10082539;28;20214;-78
2023/08/23 19:37:41;;;;;;;4.30;2.90;;;;;21.70;101294.00;;;;10068364;28;20554;-78
2023/08/23 19:42:43;;;;;;;7.45;3.25;;;;;21.60;101298.00;;;;10066157;28;20241;-78
2023/08/23 19:47:44;;;;;;;4.78;2.85;;;;;21.50;101311.00;;;;10082530;28;20266;-78
2023/08/23 19:52:47;;;;;;;3.63;2.70;;;;;21.30;101308.00;;;;10084150;28;20758;-78
2023/08/23 19:57:48;;;;;;;10.63;3.60;;;;;21.20;101310.00;;;;10067980;28;20321;-78
2023/08/23 20:02:49;;;;;;;9.75;3.22;;;;;21.10;101306.00;;;;10085817;28;20214;-78
2023/08/23 20:07:53;;;;;;;6.32;3.15;;;;;21.10;101309.00;;;;10080525;28;20349;-78
2023/08/23 20:12:54;;;;;;;5.82;3.80;;;;;21.00;101314.00;;;;10102527;28;20301;-78
2023/08/23 20:17:56;;;;;;;6.00;3.92;;;;;20.90;101306.00;;;;10087710;28;20853;-78
2023/08/23 20:22:58;;;;;;;6.93;3.65;;;;;20.80;101296.00;;;;10058407;28;20210;-77
2023/08/23 20:27:59;;;;;;;5.65;3.20;;;;;20.70;101288.00;;;;10067202;28;20250;-77
2023/08/23 20:33:01;;;;;;;9.63;3.65;;;;;20.50;101300.00;;;;10083342;28;20214;-76
2023/08/23 20:38:03;;;;;;;8.48;4.03;;;;;20.40;101295.00;;;;10073944;28;20226;-78
2023/08/23 20:43:04;;;;;;;8.40;3.58;;;;;20.30;101311.00;;;;10097677;28;20210;-78
2023/08/23 20:48:06;;;;;;;7.80;3.65;;;;;20.20;101312.00;;;;10087933;28;21716;-77
2023/08/23 20:53:07;;;;;;;7.25;4.75;;;;;20.10;101311.00;;;;10088302;28;20396;-78
2023/08/23 20:58:08;;;;;;;5.90;4.05;;;;;20.10;101312.00;;;;10069196;29;21793;-78
2023/08/23 21:03:10;;;;;;;9.75;4.10;;;;;20.00;101302.00;;;;10074864;28;20743;-78
2023/08/23 21:08:11;;;;;;;6.70;3.83;;;;;20.00;101310.00;;;;10085616;28;20301;-78
2023/08/23 21:13:13;;;;;;;9.63;4.10;;;;;20.00;101309.00;;;;10096365;28;20198;-78
2023/08/23 21:18:15;;;;;;;7.95;3.78;;;;;20.00;101309.00;;;;10036312;28;20844;-77
2023/08/23 21:23:16;;;;;;;11.90;4.18;;;;;20.00;101315.00;;;;10094246;28;20206;-76
2023/08/23 21:28:18;;;;;;;7.78;4.00;;;;;20.00;101317.00;;;;10095973;28;20844;-78
2023/08/23 21:33:19;;;;;;;9.75;4.97;;;;;19.90;101306.00;;;;10072100;28;20218;-78
2023/08/23 21:38:23;;;;;;;8.20;4.15;;;;;19.90;101301.00;;;;10095199;28;20222;-78
2023/08/23 21:43:26;;;;;;;10.98;4.70;;;;;19.90;101309.00;;;;10095495;28;20352;-78
2023/08/23 21:48:27;;;;;;;7.05;4.60;;;;;19.80;101302.00;;;;10090885;28;20207;-78
2023/08/23 21:53:28;;;;;;;9.30;5.07;;;;;19.70;101308.00;;;;10066681;28;20293;-78
2023/08/23 21:58:31;;;;;;;11.82;5.05;;;;;19.60;101304.00;;;;10065674;28;20261;-78
2023/08/23 22:03:34;;;;;;;5.78;4.40;;;;;19.50;101302.00;;;;10054295;28;21528;-77
2023/08/23 22:08:43;;;;;;;7.38;4.55;;;;;19.40;101303.00;;;;10096425;28;21392;-78
2023/08/23 22:13:45;;;;;;;11.05;5.28;;;;;19.30;101302.00;;;;10078768;28;20214;-77
2023/08/23 22:18:48;;;;;;;9.15;5.03;;;;;19.30;101309.00;;;;10060035;28;20441;-78
2023/08/23 22:23:49;;;;;;;14.20;5.35;;;;;19.30;101324.00;;;;10082492;28;20215;-78
2023/08/23 22:28:50;;;;;;;10.18;4.97;;;;;19.20;101333.00;;;;10081983;28;20211;-77
2023/08/23 22:33:52;;;;;;;11.70;6.70;;;;;19.10;101326.00;;;;10060014;28;20219;-78
2023/08/23 22:38:53;;;;;;;9.18;5.82;;;;;19.10;101337.00;;;;10093633;28;20567;-78
2023/08/23 22:43:54;;;;;;;12.30;5.75;;;;;19.00;101346.00;;;;10083481;28;20213;-77
2023/08/23 22:48:56;;;;;;;11.18;5.28;;;;;18.90;101341.00;;;;10071407;28;20427;-77
2023/08/23 22:53:57;;;;;;;11.10;5.57;;;;;18.90;101327.00;;;;10082938;28;20210;-78
2023/08/23 22:58:59;;;;;;;10.75;5.63;;;;;18.90;101324.00;;;;10088540;28;20772;-77
2023/08/23 23:04:00;;;;;;;10.68;5.72;;;;;18.80;101319.00;;;;10094623;28;20524;-77
2023/08/23 23:09:04;;;;;;;9.65;5.65;;;;;18.70;101312.00;;;;10056941;28;20241;-78
2023/08/23 23:14:05;;;;;;;11.18;6.05;;;;;18.70;101306.00;;;;10063710;28;20264;-78
2023/08/23 23:19:06;;;;;;;16.90;6.60;;;;;18.70;101291.00;;;;10079541;28;20230;-78
2023/08/23 23:24:08;;;;;;;10.13;6.32;;;;;18.70;101285.00;;;;10082024;28;20892;-78
2023/08/23 23:29:09;;;;;;;13.07;7.00;;;;;18.60;101272.00;;;;10088577;28;20960;-78
2023/08/23 23:34:10;;;;;;;9.65;6.38;;;;;18.60;101264.00;;;;10087975;28;20312;-78
2023/08/23 23:39:12;;;;;;;10.60;6.60;;;;;18.60;101262.00;;;;10065181;28;20546;-77
2023/08/23 23:44:13;;;;;;;8.23;6.30;;;;;18.50;101270.00;;;;10092073;28;20222;-77
2023/08/23 23:49:14;;;;;;;12.80;6.95;;;;;18.40;101267.00;;;;10088499;28;20278;-78
2023/08/23 23:54:16;;;;;;;9.93;6.15;;;;;18.30;101276.00;;;;10064109;28;20240;-78
2023/08/23 23:59:17;;;;;;;8.80;5.97;;;;;18.20;101258.00;;;;10089294;28;20491;-77
